Level Cross, North Carolina
Current Conditions -  °F | °C
As of 7:15 PM on Wednesday 22 Oct 2014 (Local Time) from KHBI Reporting Station
Clear Clear  
Wind Chill: 56°   Ceiling: Unl
Heat Index: 56°   Visibility: 10mi
Dew Point: 39°   Wind: 10mph
Humidity: 53%   Direction: 320°NW
Pressure: 30.07"   Gusts: NA
Location:  35.8558°N, 79.7985°W
Report Text: KHBI 222315Z AUTO 32009KT 10SM CLR 13/04 A3007 RMK AO2 T01330039
Loading
Personal Weather Stations






























Interactive Weather Map
Tropical Storm Tracking
New forecast layout! Learn more

10-Day Weather Forecast

Advertisements
Track Severe Weather on mobile